Time;durP1;ratioP1;P1;durP2;ratioP2;P2;SDS_P1;SDS_P2;PMS_P1;PMS_P2;Temp;Humidity;BMP_temperature;BMP_pressure;BME280_temperature;BME280_humidity;BME280_pressure;Samples;Min_cycle;Max_cycle;Signal;HPM_P1;HPM_P2
2022/05/27 00:00:24;;;;;;;4.20;2.97;;;19.40;67.90;;;;;;4111817;28;20987;-43
2022/05/27 00:02:26;;;;;;;3.97;3.08;;;19.40;68.00;;;;;;4127000;28;20436;-40
2022/05/27 00:04:29;;;;;;;3.80;3.10;;;19.40;68.10;;;;;;4115145;28;20543;-43
2022/05/27 00:06:32;;;;;;;4.47;2.75;;;19.40;68.30;;;;;;4134710;28;20060;-43
2022/05/27 00:08:35;;;;;;;4.18;2.88;;;19.30;68.30;;;;;;4111718;28;20049;-40
2022/05/27 00:10:38;;;;;;;4.15;3.22;;;19.30;68.40;;;;;;4112557;28;20053;-41
2022/05/27 00:12:40;;;;;;;4.15;2.95;;;19.30;68.40;;;;;;4119321;28;20080;-39
2022/05/27 00:14:42;;;;;;;3.50;2.60;;;19.30;68.50;;;;;;4115108;28;20049;-39
2022/05/27 00:16:44;;;;;;;3.65;2.88;;;19.30;68.60;;;;;;4111508;28;20517;-40
2022/05/27 00:18:47;;;;;;;3.75;2.53;;;19.30;68.60;;;;;;4115446;28;20089;-39
2022/05/27 00:20:49;;;;;;;3.30;2.35;;;19.30;68.80;;;;;;4118111;28;20648;-39
2022/05/27 00:22:51;;;;;;;3.15;2.50;;;19.20;68.60;;;;;;4111934;28;20068;-41
2022/05/27 00:24:53;;;;;;;3.80;2.63;;;19.20;68.60;;;;;;4112822;28;20050;-39
2022/05/27 00:26:56;;;;;;;3.53;2.45;;;19.20;68.70;;;;;;4119754;28;20049;-39
2022/05/27 00:28:58;;;;;;;3.22;2.33;;;19.20;68.70;;;;;;4111851;28;20146;-42
2022/05/27 00:31:00;;;;;;;3.33;2.50;;;19.20;68.90;;;;;;4111728;28;20081;-39
2022/05/27 00:33:03;;;;;;;3.58;2.20;;;19.20;68.80;;;;;;4120320;28;20053;-41
2022/05/27 00:35:07;;;;;;;3.42;2.30;;;19.20;68.90;;;;;;4113937;28;21368;-44
2022/05/27 00:37:09;;;;;;;2.97;2.05;;;19.10;68.80;;;;;;4112705;28;20122;-39
2022/05/27 00:39:11;;;;;;;3.13;2.30;;;19.10;68.90;;;;;;4114211;28;20113;-41
2022/05/27 00:41:14;;;;;;;3.03;2.00;;;19.10;69.00;;;;;;4118491;28;20057;-41
2022/05/27 00:43:16;;;;;;;2.67;2.10;;;19.10;69.00;;;;;;4112087;28;20480;-38
2022/05/27 00:45:23;;;;;;;2.58;1.92;;;19.10;69.00;;;;;;4112139;28;20325;-40
2022/05/27 00:47:31;;;;;;;2.55;1.90;;;19.10;69.00;;;;;;4115010;28;20053;-41
2022/05/27 00:49:43;;;;;;;2.65;1.95;;;19.10;69.10;;;;;;4119092;28;20123;-44
2022/05/27 00:52:13;;;;;;;2.45;1.90;;;19.10;69.20;;;;;;4118736;28;20434;-41
2022/05/27 00:54:23;;;;;;;3.13;2.17;;;19.00;69.10;;;;;;4110787;28;20052;-43
2022/05/27 00:56:29;;;;;;;2.80;2.08;;;19.00;69.10;;;;;;4111658;28;20557;-41
2022/05/27 00:58:55;;;;;;;2.38;1.75;;;19.10;69.20;;;;;;4112847;28;20053;-39
2022/05/27 01:00:59;;;;;;;2.03;1.63;;;19.00;69.20;;;;;;4112444;28;20368;-41
2022/05/27 01:03:03;;;;;;;1.95;1.75;;;19.00;69.20;;;;;;4111332;28;20143;-40
2022/05/27 01:05:08;;;;;;;2.03;1.75;;;19.00;69.20;;;;;;4112032;28;20258;-39
2022/05/27 01:07:11;;;;;;;2.58;1.88;;;19.00;69.30;;;;;;4119545;28;20491;-41
2022/05/27 01:09:14;;;;;;;2.28;1.80;;;19.00;69.30;;;;;;4112713;28;21117;-44
2022/05/27 01:11:38;;;;;;;2.53;2.00;;;19.00;69.30;;;;;;4109088;28;20056;-39
2022/05/27 01:13:48;;;;;;;;;;;19.00;69.40;;;;;;4131343;28;20944;-40
2022/05/27 01:16:27;;;;;;;2.40;1.73;;;19.00;69.50;;;;;;4113768;28;21430;-40
2022/05/27 01:21:47;;;;;;;2.00;1.58;;;18.90;69.40;;;;;;4112377;28;20921;-39
2022/05/27 01:24:30;;;;;;;2.22;1.83;;;19.00;69.50;;;;;;4111168;28;20057;-42
2022/05/27 01:27:05;;;;;;;2.05;1.60;;;19.00;70.20;;;;;;4111581;28;20144;-39
2022/05/27 01:29:25;;;;;;;2.38;1.80;;;19.00;69.60;;;;;;4110889;28;20735;-39
2022/05/27 01:31:36;;;;;;;1.98;1.52;;;18.90;69.70;;;;;;4116267;28;20069;-40
2022/05/27 01:34:00;;;;;;;1.92;1.42;;;18.90;69.70;;;;;;4117412;28;20053;-39
2022/05/27 01:36:20;;;;;;;2.25;1.40;;;18.90;69.70;;;;;;4110601;28;20554;-41
2022/05/27 01:38:49;;;;;;;1.92;1.42;;;18.90;69.80;;;;;;4111123;28;20050;-39
2022/05/27 01:41:05;;;;;;;2.15;1.48;;;18.90;69.80;;;;;;4113922;28;20064;-39
2022/05/27 01:43:29;;;;;;;1.90;1.50;;;18.90;69.80;;;;;;4110329;28;20041;-39
2022/05/27 01:45:53;;;;;;;1.90;1.50;;;18.90;69.80;;;;;;4110226;28;20076;-44
2022/05/27 01:48:15;;;;;;;1.30;1.17;;;18.90;69.80;;;;;;4117893;28;20049;-39
2022/05/27 01:50:45;;;;;;;1.60;1.30;;;18.90;69.80;;;;;;4110972;28;20069;-40
2022/05/27 01:53:00;;;;;;;1.88;1.45;;;18.90;69.80;;;;;;4115805;28;20900;-40
2022/05/27 01:55:11;;;;;;;1.48;1.30;;;18.90;69.90;;;;;;4118324;28;20080;-40
2022/05/27 01:57:19;;;;;;;1.83;1.35;;;19.00;70.00;;;;;;4118118;28;20083;-39
2022/05/27 01:59:36;;;;;;;1.67;1.27;;;19.00;70.00;;;;;;4111629;28;20164;-45
2022/05/27 02:01:49;;;;;;;1.23;1.13;;;19.00;70.00;;;;;;4116157;28;20789;-39
2022/05/27 02:04:01;;;;;;;1.35;1.17;;;19.00;70.00;;;;;;4115406;28;20520;-42
2022/05/27 02:06:28;;;;;;;2.63;1.55;;;19.00;70.10;;;;;;4117814;28;20690;-40
2022/05/27 02:09:12;;;;;;;1.33;1.23;;;19.00;70.10;;;;;;4110266;28;20435;-44
2022/05/27 02:11:19;;;;;;;1.60;1.40;;;19.00;70.10;;;;;;4106256;28;20045;-40
2022/05/27 02:13:39;;;;;;;2.05;1.30;;;19.00;70.20;;;;;;4112967;28;20055;-39
2022/05/27 02:15:46;;;;;;;2.10;1.60;;;19.00;70.20;;;;;;4108892;28;20057;-38
2022/05/27 02:18:04;;;;;;;1.60;1.30;;;19.00;70.30;;;;;;4109486;28;20633;-40
2022/05/27 02:20:17;;;;;;;2.33;1.50;;;19.00;70.50;;;;;;4108487;28;20570;-38
2022/05/27 02:22:25;;;;;;;1.23;1.13;;;19.10;70.60;;;;;;4110249;28;20480;-47
2022/05/27 02:24:39;;;;;;;1.98;1.30;;;19.10;70.60;;;;;;4109630;28;20462;-43
2022/05/27 02:26:52;;;;;;;2.30;1.80;;;19.10;70.60;;;;;;4110270;28;20195;-39
2022/05/27 02:29:02;;;;;;;1.57;1.17;;;19.10;70.70;;;;;;4109924;28;20060;-39
2022/05/27 02:31:28;;;;;;;1.75;1.35;;;19.10;70.70;;;;;;4110181;28;20487;-41
2022/05/27 02:36:17;;;;;;;1.75;1.23;;;19.10;70.90;;;;;;4110258;28;20323;-40
2022/05/27 02:38:19;;;;;;;1.67;1.40;;;19.10;71.00;;;;;;4110055;28;20382;-40
2022/05/27 02:40:26;;;;;;;1.77;1.40;;;19.10;71.00;;;;;;4112461;28;20545;-41
2022/05/27 02:42:43;;;;;;;1.80;1.10;;;19.10;71.00;;;;;;4117561;28;20080;-40
2022/05/27 02:44:58;;;;;;;1.42;1.27;;;19.20;71.10;;;;;;4112528;28;20069;-40
2022/05/27 02:47:30;;;;;;;1.42;1.25;;;19.20;71.10;;;;;;4109388;28;20050;-40
2022/05/27 02:49:51;;;;;;;1.73;1.50;;;19.20;71.10;;;;;;4117063;28;20054;-41
2022/05/27 02:52:25;;;;;;;1.40;1.30;;;19.20;71.10;;;;;;4114237;28;20084;-40
2022/05/27 02:54:34;;;;;;;2.40;1.60;;;19.20;71.10;;;;;;4114431;28;21979;-39
2022/05/27 02:56:44;;;;;;;1.52;1.35;;;19.30;71.80;;;;;;4110522;28;21175;-39
2022/05/27 02:58:47;;;;;;;1.27;1.13;;;19.30;71.20;;;;;;4109591;28;20049;-39
2022/05/27 03:00:49;;;;;;;1.52;1.30;;;19.30;71.20;;;;;;4110074;28;20087;-40
2022/05/27 03:02:51;;;;;;;2.05;1.33;;;19.30;71.20;;;;;;4116936;28;20084;-38
2022/05/27 03:05:00;;;;;;;1.40;1.10;;;19.30;71.30;;;;;;4112668;28;20091;-39
2022/05/27 03:07:11;;;;;;;1.35;1.20;;;19.30;71.30;;;;;;4110130;28;20053;-39
2022/05/27 03:09:31;;;;;;;1.40;1.08;;;19.40;71.30;;;;;;4110164;28;20449;-39
2022/05/27 03:12:14;;;;;;;1.65;1.30;;;19.40;71.30;;;;;;4115758;28;20134;-43
2022/05/27 03:14:16;;;;;;;1.58;1.27;;;19.40;71.30;;;;;;4105697;28;20073;-40
2022/05/27 03:16:35;;;;;;;1.40;1.30;;;19.50;71.20;;;;;;4109026;28;20045;-39
2022/05/27 03:18:43;;;;;;;1.80;1.20;;;19.50;71.20;;;;;;4110147;28;20609;-39
2022/05/27 03:20:56;;;;;;;1.85;1.23;;;19.50;71.20;;;;;;4109712;28;20044;-39
2022/05/27 03:23:25;;;;;;;1.65;1.27;;;19.50;71.20;;;;;;4109609;28;20659;-38
2022/05/27 03:25:39;;;;;;;1.45;1.30;;;19.60;71.20;;;;;;4115575;28;20207;-40
2022/05/27 03:27:58;;;;;;;;;;;19.60;71.10;;;;;;4113625;28;20135;-40
2022/05/27 03:30:40;;;;;;;1.48;1.05;;;19.70;71.10;;;;;;4107967;28;20012;-42
2022/05/27 03:32:51;;;;;;;1.58;1.30;;;19.80;71.00;;;;;;4098509;28;20046;-39
2022/05/27 03:35:22;;;;;;;2.03;1.58;;;19.80;70.90;;;;;;4110834;28;20172;-39
2022/05/27 03:37:31;;;;;;;1.92;1.48;;;19.90;70.80;;;;;;4113837;28;21262;-41
2022/05/27 03:40:05;;;;;;;1.65;1.15;;;19.90;70.80;;;;;;4109576;28;20840;-39
2022/05/27 03:42:08;;;;;;;;;;;20.00;70.80;;;;;;4099137;28;20079;-41
2022/05/27 03:44:16;;;;;;;1.70;1.15;;;20.00;70.60;;;;;;4115681;28;19939;-39
2022/05/27 03:46:36;;;;;;;1.67;1.40;;;20.10;70.60;;;;;;4115375;28;20661;-39
2022/05/27 03:48:39;;;;;;;1.65;1.25;;;20.10;70.40;;;;;;4110217;28;20557;-41
2022/05/27 03:50:41;;;;;;;1.60;1.13;;;20.20;70.30;;;;;;4117929;28;20739;-45
2022/05/27 03:52:49;;;;;;;1.75;1.15;;;20.20;70.70;;;;;;4107306;28;20058;-43
2022/05/27 03:54:51;;;;;;;1.40;1.08;;;20.30;70.00;;;;;;4108095;28;20648;-40
2022/05/27 03:56:53;;;;;;;1.15;1.00;;;20.40;70.60;;;;;;4111604;28;20727;-41
2022/05/27 03:58:55;;;;;;;1.63;1.08;;;20.40;69.80;;;;;;4115393;28;21197;-40
2022/05/27 04:00:57;;;;;;;1.10;0.90;;;20.50;69.70;;;;;;4107786;28;20041;-40
2022/05/27 04:03:00;;;;;;;1.30;1.20;;;20.50;69.60;;;;;;4106168;28;20056;-39
2022/05/27 04:05:02;;;;;;;1.27;1.00;;;20.60;69.50;;;;;;4116117;28;20046;-40
2022/05/27 04:07:04;;;;;;;0.80;0.80;;;20.60;69.40;;;;;;4107448;28;21453;-40
2022/05/27 04:09:07;;;;;;;1.05;0.90;;;20.70;69.30;;;;;;4107943;28;20072;-40
2022/05/27 04:11:09;;;;;;;1.88;1.10;;;20.70;69.20;;;;;;4115993;28;20106;-42
2022/05/27 04:13:11;;;;;;;1.05;0.90;;;20.80;69.10;;;;;;4112528;28;20993;-39
2022/05/27 04:15:13;;;;;;;0.90;0.70;;;20.90;69.10;;;;;;4140539;28;20255;-42
2022/05/27 04:17:27;;;;;;;0.70;0.70;;;20.90;68.90;;;;;;4112120;28;20191;-41
2022/05/27 04:19:29;;;;;;;0.77;0.75;;;21.00;68.90;;;;;;4109885;28;20045;-42
2022/05/27 04:21:31;;;;;;;0.70;0.70;;;21.00;68.70;;;;;;4117836;28;20041;-46
2022/05/27 04:23:34;;;;;;;1.05;0.85;;;21.00;68.60;;;;;;4112355;28;20118;-40
2022/05/27 04:25:36;;;;;;;1.05;0.95;;;21.10;68.60;;;;;;4112820;28;20494;-40
2022/05/27 04:27:39;;;;;;;1.17;0.90;;;21.10;68.50;;;;;;4119568;28;20254;-41
2022/05/27 04:29:47;;;;;;;0.65;0.63;;;21.10;68.50;;;;;;4113287;28;21745;-41
2022/05/27 04:31:49;;;;;;;0.60;0.60;;;21.20;68.40;;;;;;4113055;28;20049;-41
2022/05/27 04:33:51;;;;;;;0.73;0.73;;;21.30;68.40;;;;;;4110724;28;20257;-38
2022/05/27 04:35:53;;;;;;;1.13;0.85;;;21.30;68.30;;;;;;4120027;28;20145;-40
2022/05/27 04:37:55;;;;;;;0.88;0.70;;;21.30;68.20;;;;;;4111066;28;21211;-40
2022/05/27 04:39:57;;;;;;;0.73;0.70;;;21.40;68.10;;;;;;4111081;28;20392;-39
2022/05/27 04:42:00;;;;;;;0.90;0.70;;;21.50;68.00;;;;;;4118165;28;20053;-41
2022/05/27 04:44:02;;;;;;;0.75;0.75;;;21.50;67.90;;;;;;4114918;28;20487;-40
2022/05/27 04:46:04;;;;;;;0.82;0.75;;;21.60;67.70;;;;;;4111041;28;20064;-39
2022/05/27 04:48:07;;;;;;;1.20;1.10;;;21.70;67.70;;;;;;4113437;28;20046;-45
2022/05/27 04:50:11;;;;;;;1.10;1.00;;;21.70;67.50;;;;;;4119010;28;20348;-39
2022/05/27 04:52:13;;;;;;;0.80;0.80;;;21.80;67.50;;;;;;4110485;28;20063;-40
2022/05/27 04:54:15;;;;;;;1.13;0.90;;;21.90;67.40;;;;;;4111020;28;20053;-41
2022/05/27 04:56:17;;;;;;;1.15;0.82;;;21.90;67.20;;;;;;4119461;28;20057;-39
2022/05/27 04:58:19;;;;;;;0.90;0.80;;;22.00;67.10;;;;;;4112320;28;20057;-40
2022/05/27 05:00:23;;;;;;;0.80;0.70;;;22.10;67.10;;;;;;4110069;28;20133;-39
2022/05/27 05:02:26;;;;;;;1.70;1.30;;;22.10;67.00;;;;;;4114911;28;20673;-38
2022/05/27 05:04:28;;;;;;;1.10;0.90;;;22.10;66.80;;;;;;4109112;28;20049;-39
2022/05/27 05:06:30;;;;;;;0.80;0.75;;;22.20;66.80;;;;;;4109338;28;20079;-40
2022/05/27 05:08:36;;;;;;;0.88;0.82;;;22.20;66.70;;;;;;4111132;28;20657;-39
2022/05/27 05:10:38;;;;;;;1.65;1.10;;;22.20;66.60;;;;;;4117127;28;20049;-40
2022/05/27 05:12:41;;;;;;;0.87;0.70;;;22.20;66.50;;;;;;4114287;28;21230;-44
2022/05/27 05:14:43;;;;;;;1.00;0.90;;;22.30;66.50;;;;;;4109052;28;20353;-39
2022/05/27 05:16:45;;;;;;;1.08;0.98;;;22.30;66.30;;;;;;4114092;28;20085;-40
2022/05/27 05:18:47;;;;;;;1.33;1.20;;;22.40;66.20;;;;;;4116445;28;20146;-40
2022/05/27 05:20:49;;;;;;;1.83;1.10;;;22.40;66.20;;;;;;4109972;28;20624;-38
2022/05/27 05:22:51;;;;;;;1.35;1.10;;;22.40;66.20;;;;;;4110287;28;20446;-40
2022/05/27 05:24:53;;;;;;;1.38;0.90;;;22.50;66.10;;;;;;4116872;28;20486;-40
2022/05/27 05:26:56;;;;;;;0.80;0.80;;;22.50;66.10;;;;;;4110300;28;20588;-43
2022/05/27 05:28:58;;;;;;;1.77;0.90;;;22.50;65.80;;;;;;4111718;28;20587;-42
2022/05/27 05:31:00;;;;;;;1.52;1.00;;;22.50;65.80;;;;;;4116558;28;20052;-39
2022/05/27 05:33:02;;;;;;;1.15;1.05;;;22.50;66.00;;;;;;4111239;28;20629;-42
2022/05/27 05:35:05;;;;;;;1.30;1.00;;;22.50;66.00;;;;;;4109631;28;20432;-40
2022/05/27 05:37:08;;;;;;;1.25;0.90;;;22.50;66.00;;;;;;4113732;28;20084;-39
2022/05/27 05:39:10;;;;;;;1.23;0.93;;;22.50;66.10;;;;;;4114078;28;20717;-40
2022/05/27 05:41:12;;;;;;;1.42;1.00;;;22.40;66.20;;;;;;4106641;28;20049;-41
2022/05/27 05:43:15;;;;;;;2.40;1.00;;;22.40;66.20;;;;;;4107279;28;20081;-39
2022/05/27 05:45:19;;;;;;;2.08;1.00;;;22.40;66.20;;;;;;4115257;28;20525;-40
2022/05/27 05:47:21;;;;;;;1.10;0.80;;;22.30;66.50;;;;;;4108187;28;20105;-38
2022/05/27 05:49:26;;;;;;;0.80;0.80;;;22.30;66.50;;;;;;4107263;28;20160;-41
2022/05/27 05:51:29;;;;;;;1.10;0.93;;;22.30;66.60;;;;;;4110645;28;20053;-40
2022/05/27 05:53:31;;;;;;;1.30;0.88;;;22.30;66.70;;;;;;4115937;28;20140;-39
2022/05/27 05:55:35;;;;;;;1.40;0.77;;;22.30;66.90;;;;;;4106824;28;20173;-43
2022/05/27 05:57:39;;;;;;;1.15;0.82;;;22.20;67.50;;;;;;4105235;28;20092;-40
2022/05/27 05:59:41;;;;;;;0.85;0.82;;;22.20;67.00;;;;;;4112328;28;20046;-42
2022/05/27 06:01:44;;;;;;;1.50;0.77;;;22.20;67.00;;;;;;4111905;28;21170;-39
2022/05/27 06:03:46;;;;;;;1.00;0.90;;;22.20;67.20;;;;;;4106712;28;20132;-45
2022/05/27 06:05:48;;;;;;;1.42;1.00;;;22.20;67.20;;;;;;4108285;28;20064;-41
2022/05/27 06:07:52;;;;;;;1.85;1.10;;;22.10;67.30;;;;;;4114315;28;20151;-41
2022/05/27 06:09:54;;;;;;;1.38;0.90;;;22.10;67.30;;;;;;4107886;28;20096;-39
2022/05/27 06:11:58;;;;;;;1.35;0.90;;;22.10;67.30;;;;;;4106678;28;20983;-43
2022/05/27 06:14:00;;;;;;;1.13;0.85;;;22.10;67.40;;;;;;4112622;28;20041;-41
2022/05/27 06:16:03;;;;;;;2.85;1.23;;;22.10;67.50;;;;;;4110728;28;20229;-40
2022/05/27 06:18:06;;;;;;;1.85;1.15;;;22.10;67.50;;;;;;4107131;28;20053;-41
2022/05/27 06:20:09;;;;;;;0.95;0.70;;;22.10;67.60;;;;;;4108046;28;20438;-45
2022/05/27 06:22:11;;;;;;;1.30;0.90;;;22.10;67.70;;;;;;4104643;28;20062;-41
2022/05/27 06:24:13;;;;;;;1.73;0.93;;;22.10;67.70;;;;;;4107803;28;20607;-45
2022/05/27 06:26:16;;;;;;;1.05;0.70;;;22.10;67.70;;;;;;4106384;28;20056;-41
2022/05/27 06:35:19;;;;;;;2.88;0.90;;;22.10;67.80;;;;;;4110456;28;20525;-39
2022/05/27 06:37:22;;;;;;;0.95;0.70;;;22.00;67.80;;;;;;4109007;28;20057;-38
2022/05/27 06:39:25;;;;;;;1.25;0.70;;;22.00;67.90;;;;;;4108068;28;20572;-42
2022/05/27 06:41:28;;;;;;;1.45;0.88;;;22.00;68.10;;;;;;4113264;28;20606;-42
2022/05/27 06:43:31;;;;;;;1.33;0.77;;;21.90;68.20;;;;;;4105784;28;20071;-48
2022/05/27 06:45:33;;;;;;;0.73;0.43;;;21.90;68.30;;;;;;4107171;28;20590;-39
2022/05/27 06:47:36;;;;;;;1.13;1.02;;;21.90;68.50;;;;;;4112237;28;20511;-38
2022/05/27 06:49:38;;;;;;;3.53;1.20;;;21.90;68.60;;;;;;4108234;28;20762;-38
2022/05/27 06:51:41;;;;;;;1.08;0.80;;;21.80;68.60;;;;;;4106318;28;20077;-46
2022/05/27 06:53:43;;;;;;;1.30;0.75;;;21.80;68.70;;;;;;4110171;28;20087;-44
2022/05/27 06:55:50;;;;;;;1.92;0.80;;;21.80;69.00;;;;;;4108950;28;20706;-39
2022/05/27 06:57:52;;;;;;;1.05;0.90;;;21.70;68.90;;;;;;4108547;28;20815;-39
2022/05/27 06:59:54;;;;;;;1.30;0.82;;;21.70;69.00;;;;;;4106353;28;20049;-40
2022/05/27 07:01:56;;;;;;;1.85;1.00;;;21.70;69.00;;;;;;4111563;28;20426;-40
2022/05/27 07:03:58;;;;;;;1.42;0.90;;;21.70;69.20;;;;;;4102975;28;21231;-39
2022/05/27 07:06:01;;;;;;;2.55;0.93;;;21.70;69.30;;;;;;4107267;28;20448;-39
2022/05/27 07:08:05;;;;;;;1.55;0.90;;;21.60;69.30;;;;;;4104357;28;20526;-39
2022/05/27 07:10:08;;;;;;;1.77;0.90;;;21.60;69.40;;;;;;4115357;28;20054;-39
2022/05/27 07:12:12;;;;;;;3.20;1.20;;;21.60;69.40;;;;;;4103921;28;20054;-39
2022/05/27 07:14:15;;;;;;;1.42;1.05;;;21.60;69.40;;;;;;4107816;28;20658;-40
2022/05/27 07:16:17;;;;;;;4.25;1.30;;;21.60;69.50;;;;;;4107444;28;20049;-38
2022/05/27 07:18:20;;;;;;;1.23;0.88;;;21.60;70.20;;;;;;4108644;28;20718;-40
2022/05/27 07:20:23;;;;;;;1.75;0.73;;;21.60;69.60;;;;;;4104819;28;20596;-39
2022/05/27 07:22:26;;;;;;;1.65;0.98;;;21.60;69.70;;;;;;4104320;28;20898;-43
2022/05/27 07:24:28;;;;;;;2.22;1.00;;;21.50;69.70;;;;;;4112293;28;20135;-39
2022/05/27 07:26:30;;;;;;;2.83;1.23;;;21.50;69.70;;;;;;4109805;28;20718;-40
2022/05/27 07:28:32;;;;;;;2.45;1.10;;;21.50;70.50;;;;;;4104123;28;20887;-38
2022/05/27 07:30:35;;;;;;;0.95;0.80;;;21.50;69.90;;;;;;4110720;28;20069;-40
2022/05/27 07:32:38;;;;;;;2.00;1.20;;;21.50;69.90;;;;;;4109869;28;21025;-42
2022/05/27 07:34:40;;;;;;;1.92;1.02;;;21.50;70.50;;;;;;4108277;28;20438;-39
2022/05/27 07:36:42;;;;;;;1.38;0.90;;;21.50;70.00;;;;;;4102034;28;20585;-38
2022/05/27 07:38:44;;;;;;;1.48;1.08;;;21.50;70.10;;;;;;4108342;28;20061;-40
2022/05/27 07:40:47;;;;;;;1.73;0.98;;;21.40;70.10;;;;;;4105624;28;20330;-39
2022/05/27 07:42:49;;;;;;;2.42;1.10;;;21.40;70.10;;;;;;4104654;28;20096;-39
2022/05/27 07:44:51;;;;;;;5.05;1.23;;;21.50;70.20;;;;;;4112226;28;20045;-39
2022/05/27 07:46:54;;;;;;;2.58;1.10;;;21.40;70.20;;;;;;4105024;28;20053;-39
2022/05/27 07:48:56;;;;;;;1.30;1.00;;;21.40;70.30;;;;;;4105504;28;20067;-40
2022/05/27 07:50:58;;;;;;;1.83;1.08;;;21.40;70.30;;;;;;4108563;28;20542;-39
2022/05/27 07:53:00;;;;;;;1.60;1.00;;;21.40;71.00;;;;;;4108605;28;21288;-40
2022/05/27 07:55:03;;;;;;;1.50;1.00;;;21.40;70.40;;;;;;4104530;28;20837;-38
2022/05/27 07:57:23;;;;;;;1.45;1.15;;;21.40;70.50;;;;;;4106922;28;20119;-38
2022/05/27 07:59:26;;;;;;;1.13;0.73;;;21.40;70.50;;;;;;4108116;28;20058;-38
2022/05/27 08:01:28;;;;;;;0.95;0.82;;;21.40;70.50;;;;;;4106084;28;20049;-39
2022/05/27 08:03:30;;;;;;;2.20;1.20;;;21.40;70.50;;;;;;4116298;28;20088;-41
2022/05/27 08:05:35;;;;;;;2.33;1.15;;;21.30;70.50;;;;;;4104136;28;20575;-39
2022/05/27 08:07:38;;;;;;;1.27;0.93;;;21.40;70.60;;;;;;4110481;28;20052;-40
2022/05/27 08:09:40;;;;;;;2.78;1.25;;;21.30;70.60;;;;;;4115333;28;20579;-40
2022/05/27 08:11:42;;;;;;;2.53;1.10;;;21.30;70.60;;;;;;4111545;28;21443;-44
2022/05/27 08:13:44;;;;;;;1.67;1.05;;;21.30;70.70;;;;;;4107008;28;20515;-42
2022/05/27 08:15:47;;;;;;;2.00;1.33;;;21.30;70.70;;;;;;4108448;28;20056;-41
2022/05/27 08:17:49;;;;;;;0.80;0.80;;;21.30;70.70;;;;;;4113513;28;20053;-42
2022/05/27 08:19:52;;;;;;;0.83;0.80;;;21.30;70.70;;;;;;4107886;28;20385;-40
2022/05/27 08:21:54;;;;;;;2.00;0.88;;;21.30;70.70;;;;;;4109950;28;20310;-40
2022/05/27 08:23:56;;;;;;;1.50;0.85;;;21.30;70.80;;;;;;4115468;28;20049;-41
2022/05/27 08:25:59;;;;;;;2.92;1.10;;;21.30;70.80;;;;;;4110292;28;20472;-39
2022/05/27 08:28:01;;;;;;;1.70;0.90;;;21.30;70.80;;;;;;4107847;28;20077;-39
2022/05/27 08:30:05;;;;;;;2.17;0.75;;;21.30;70.80;;;;;;4114893;28;20062;-40
2022/05/27 08:32:07;;;;;;;2.15;1.20;;;21.30;70.80;;;;;;4113879;28;20318;-41
2022/05/27 08:38:51;;;;;;;1.98;1.00;;;21.20;70.90;;;;;;4115290;28;20057;-41
2022/05/27 08:41:24;;;;;;;0.80;0.65;;;21.20;70.90;;;;;;4112326;28;20076;-41
2022/05/27 08:43:39;;;;;;;2.78;1.08;;;21.20;70.90;;;;;;4110160;28;20052;-42
2022/05/27 08:46:05;;;;;;;1.40;0.88;;;21.20;70.90;;;;;;4111012;28;20046;-40
2022/05/27 08:48:10;;;;;;;1.73;1.10;;;21.20;71.00;;;;;;4117763;28;20045;-40
2022/05/27 08:50:24;;;;;;;7.10;1.17;;;21.20;70.90;;;;;;4110708;28;20061;-41
2022/05/27 08:52:43;;;;;;;1.10;0.90;;;21.20;71.00;;;;;;4112967;28;20117;-39
2022/05/27 08:54:57;;;;;;;1.33;1.00;;;21.20;71.00;;;;;;4115199;28;20049;-39
2022/05/27 08:59:31;;;;;;;1.63;1.10;;;21.20;71.10;;;;;;4101190;28;20055;-41
2022/05/27 09:01:36;;;;;;;1.73;0.90;;;21.10;71.10;;;;;;4109409;28;20406;-40
2022/05/27 09:04:00;;;;;;;3.28;1.45;;;21.10;71.10;;;;;;4115977;28;20432;-41
2022/05/27 09:06:05;;;;;;;1.88;1.20;;;21.10;71.10;;;;;;4109425;28;20055;-41
2022/05/27 09:08:19;;;;;;;1.58;0.93;;;21.10;71.20;;;;;;4111399;28;20711;-42
2022/05/27 09:10:47;;;;;;;2.30;0.93;;;21.10;71.20;;;;;;4109776;28;20118;-39
2022/05/27 09:13:10;;;;;;;1.88;1.05;;;21.10;71.20;;;;;;4111447;28;20207;-39
2022/05/27 09:15:32;;;;;;;1.57;0.93;;;21.10;71.20;;;;;;4117410;28;20056;-39
2022/05/27 09:17:38;;;;;;;1.75;0.95;;;21.10;71.30;;;;;;4109799;28;20072;-38
2022/05/27 09:20:00;;;;;;;1.40;0.95;;;21.10;71.30;;;;;;4112093;28;20081;-44
2022/05/27 09:22:08;;;;;;;1.90;1.30;;;21.10;71.40;;;;;;4109182;28;20103;-40
2022/05/27 09:24:28;;;;;;;2.08;1.13;;;21.10;71.40;;;;;;4109606;28;20091;-41
2022/05/27 09:26:44;;;;;;;2.15;1.15;;;21.10;71.40;;;;;;4110006;28;20063;-40
2022/05/27 09:29:07;;;;;;;1.60;1.15;;;21.00;71.40;;;;;;4110379;28;20377;-40
2022/05/27 09:31:13;;;;;;;2.33;1.27;;;21.00;71.40;;;;;;4117074;28;20092;-39
2022/05/27 09:33:23;;;;;;;2.13;1.40;;;21.00;71.50;;;;;;4114446;28;21773;-38
2022/05/27 09:35:52;;;;;;;2.20;1.20;;;21.00;71.50;;;;;;4111714;28;20390;-39
2022/05/27 09:37:58;;;;;;;1.52;1.10;;;21.00;71.60;;;;;;4109183;28;20056;-41
2022/05/27 09:40:07;;;;;;;2.13;1.30;;;21.00;71.60;;;;;;4116621;28;20049;-39
2022/05/27 09:42:16;;;;;;;1.95;1.40;;;21.00;71.70;;;;;;4116986;28;20123;-44
2022/05/27 09:44:39;;;;;;;1.77;1.17;;;21.00;71.70;;;;;;4114398;28;20142;-40
2022/05/27 09:46:41;;;;;;;2.65;1.70;;;21.00;71.70;;;;;;4111680;28;20049;-41
2022/05/27 09:48:44;;;;;;;2.88;1.50;;;21.00;71.70;;;;;;4117780;28;20110;-40
2022/05/27 09:50:47;;;;;;;;;;;21.00;71.70;;;;;;4110274;28;20143;-39
2022/05/27 09:52:53;;;;;;;2.25;1.45;;;21.00;71.80;;;;;;4106812;28;20047;-39
2022/05/27 09:55:01;;;;;;;3.28;1.67;;;21.00;71.70;;;;;;4111744;28;20053;-40
2022/05/27 09:57:13;;;;;;;2.42;1.27;;;21.00;71.80;;;;;;4116762;28;20053;-41
2022/05/27 09:59:33;;;;;;;3.17;1.40;;;20.90;71.70;;;;;;4117093;28;20061;-42
2022/05/27 10:01:38;;;;;;;2.03;1.40;;;20.90;71.70;;;;;;4108808;28;20418;-39
2022/05/27 10:03:40;;;;;;;2.97;1.60;;;20.90;71.70;;;;;;4117494;28;20053;-40
2022/05/27 10:05:42;;;;;;;2.20;1.60;;;20.90;71.70;;;;;;4111568;28;21070;-40
2022/05/27 10:08:00;;;;;;;2.95;1.77;;;20.90;71.70;;;;;;4109249;28;20061;-42
2022/05/27 10:10:26;;;;;;;3.28;1.80;;;20.90;71.70;;;;;;4108493;28;20148;-40
2022/05/27 10:12:34;;;;;;;2.72;1.60;;;20.90;71.70;;;;;;4117410;28;20064;-42
2022/05/27 10:14:39;;;;;;;1.65;1.20;;;20.90;71.80;;;;;;4115331;28;20053;-44
2022/05/27 10:16:44;;;;;;;1.98;1.23;;;20.90;71.80;;;;;;4110028;28;20483;-42
2022/05/27 10:18:46;;;;;;;3.22;1.52;;;20.90;71.80;;;;;;4108470;28;20057;-39
2022/05/27 10:20:58;;;;;;;2.85;1.70;;;20.90;71.80;;;;;;4111105;28;20455;-40
2022/05/27 10:23:06;;;;;;;3.60;1.63;;;20.90;71.80;;;;;;4127880;28;20053;-42
2022/05/27 10:25:12;;;;;;;2.97;1.70;;;20.80;71.70;;;;;;4117185;28;20099;-43
2022/05/27 10:27:22;;;;;;;3.45;1.50;;;20.80;71.80;;;;;;4113192;28;20191;-40
2022/05/27 10:29:24;;;;;;;2.30;1.40;;;20.80;71.70;;;;;;4113473;28;21344;-41
2022/05/27 10:31:27;;;;;;;3.38;1.58;;;20.80;71.80;;;;;;4109414;28;20500;-39
2022/05/27 10:33:43;;;;;;;2.17;1.52;;;20.80;71.70;;;;;;4107411;28;20333;-40
2022/05/27 10:35:47;;;;;;;2.88;1.70;;;20.80;71.70;;;;;;4109907;28;20049;-44
2022/05/27 10:38:13;;;;;;;2.55;1.80;;;20.80;71.80;;;;;;4115304;28;20083;-38
2022/05/27 10:40:26;;;;;;;3.20;1.95;;;20.80;71.70;;;;;;4109331;28;20049;-39
2022/05/27 10:42:58;;;;;;;2.45;1.70;;;20.80;71.70;;;;;;4108869;28;20136;-39
2022/05/27 10:45:20;;;;;;;3.70;1.88;;;20.80;71.80;;;;;;4114407;28;20935;-38
2022/05/27 10:47:43;;;;;;;2.88;2.08;;;20.80;71.80;;;;;;4107537;28;20049;-38
2022/05/27 10:49:50;;;;;;;3.53;1.80;;;20.70;71.80;;;;;;4111957;28;20879;-39
2022/05/27 10:52:15;;;;;;;2.55;1.88;;;20.80;71.80;;;;;;4108391;28;21148;-39
2022/05/27 10:54:23;;;;;;;2.60;1.80;;;20.70;71.70;;;;;;4116646;28;20045;-39
2022/05/27 10:56:42;;;;;;;3.40;1.90;;;20.70;71.80;;;;;;4115787;28;20611;-39
2022/05/27 11:04:00;;;;;;;3.70;1.90;;;20.70;71.80;;;;;;4112441;28;20305;-38
2022/05/27 11:06:20;;;;;;;3.60;1.73;;;20.70;71.80;;;;;;4107793;28;20415;-41
2022/05/27 11:08:25;;;;;;;2.80;1.77;;;20.70;71.80;;;;;;4109769;28;20521;-41
2022/05/27 11:11:04;;;;;;;2.97;1.80;;;20.60;71.90;;;;;;4110252;28;20046;-42
2022/05/27 11:16:14;;;;;;;2.63;1.67;;;20.60;71.70;;;;;;4109855;28;20080;-40
2022/05/27 11:18:36;;;;;;;3.30;2.00;;;20.60;71.70;;;;;;4109889;28;20172;-40
2022/05/27 11:20:47;;;;;;;3.10;1.80;;;20.60;71.80;;;;;;4116235;28;20162;-38
2022/05/27 11:23:18;;;;;;;3.40;1.70;;;20.60;71.80;;;;;;4113880;28;20654;-40
2022/05/27 11:25:32;;;;;;;3.13;1.90;;;20.60;71.80;;;;;;4110507;28;20451;-38
2022/05/27 11:28:00;;;;;;;3.55;2.17;;;20.60;71.80;;;;;;4109800;28;20600;-39
2022/05/27 11:30:23;;;;;;;3.22;2.00;;;20.60;71.80;;;;;;4115692;28;20057;-39
2022/05/27 11:32:50;;;;;;;3.67;2.20;;;20.50;71.70;;;;;;4112479;28;20223;-38
2022/05/27 11:35:33;;;;;;;2.47;1.63;;;20.50;71.90;;;;;;4113179;28;20362;-39
2022/05/27 11:37:35;;;;;;;3.08;1.88;;;20.50;71.80;;;;;;4106681;28;20248;-39
2022/05/27 11:39:58;;;;;;;3.00;1.77;;;20.50;71.80;;;;;;4113910;28;20434;-40